sensor_id;sensor_type;location;lat;lon;timestamp;pressure;altitude;pressure_sealevel;temperature
57468;BMP280;43311;51.196;7.518;2023-08-17T00:01:54;97225.09;;;18.24
57468;BMP280;43311;51.196;7.518;2023-08-17T00:04:20;97220.47;;;18.15
57468;BMP280;43311;51.196;7.518;2023-08-17T00:06:46;97222.19;;;18.00
57468;BMP280;43311;51.196;7.518;2023-08-17T00:09:12;97223.09;;;17.97
57468;BMP280;43311;51.196;7.518;2023-08-17T00:11:38;97239.16;;;17.94
57468;BMP280;43311;51.196;7.518;2023-08-17T00:14:03;97244.16;;;17.92
57468;BMP280;43311;51.196;7.518;2023-08-17T00:16:29;97248.84;;;17.88
57468;BMP280;43311;51.196;7.518;2023-08-17T00:18:54;97250.00;;;17.78
57468;BMP280;43311;51.196;7.518;2023-08-17T00:21:20;97243.53;;;17.79
57468;BMP280;43311;51.196;7.518;2023-08-17T00:23:45;97247.31;;;17.69
57468;BMP280;43311;51.196;7.518;2023-08-17T00:26:11;97253.06;;;17.68
57468;BMP280;43311;51.196;7.518;2023-08-17T00:28:37;97240.75;;;17.52
57468;BMP280;43311;51.196;7.518;2023-08-17T00:31:02;97239.09;;;17.46
57468;BMP280;43311;51.196;7.518;2023-08-17T00:33:29;97244.66;;;17.39
57468;BMP280;43311;51.196;7.518;2023-08-17T00:35:54;97253.41;;;17.48
57468;BMP280;43311;51.196;7.518;2023-08-17T00:38:20;97249.22;;;17.38
57468;BMP280;43311;51.196;7.518;2023-08-17T00:40:47;97251.81;;;17.29
57468;BMP280;43311;51.196;7.518;2023-08-17T00:43:12;97237.50;;;17.27
57468;BMP280;43311;51.196;7.518;2023-08-17T00:45:37;97246.63;;;17.26
57468;BMP280;43311;51.196;7.518;2023-08-17T00:48:04;97252.91;;;17.19
57468;BMP280;43311;51.196;7.518;2023-08-17T00:50:34;97258.66;;;17.18
57468;BMP280;43311;51.196;7.518;2023-08-17T00:53:00;97262.03;;;17.18
57468;BMP280;43311;51.196;7.518;2023-08-17T00:55:27;97249.22;;;17.17
57468;BMP280;43311;51.196;7.518;2023-08-17T00:57:53;97251.66;;;17.11
57468;BMP280;43311;51.196;7.518;2023-08-17T01:00:21;97257.59;;;17.15
57468;BMP280;43311;51.196;7.518;2023-08-17T01:02:47;97246.88;;;16.98
57468;BMP280;43311;51.196;7.518;2023-08-17T01:05:16;97264.16;;;17.02
57468;BMP280;43311;51.196;7.518;2023-08-17T01:07:41;97268.13;;;17.07
57468;BMP280;43311;51.196;7.518;2023-08-17T01:10:07;97261.28;;;16.97
57468;BMP280;43311;51.196;7.518;2023-08-17T01:12:38;97269.56;;;16.99
57468;BMP280;43311;51.196;7.518;2023-08-17T01:15:14;97271.41;;;17.11
57468;BMP280;43311;51.196;7.518;2023-08-17T01:17:53;97261.06;;;17.04
57468;BMP280;43311;51.196;7.518;2023-08-17T01:20:20;97272.81;;;17.03
57468;BMP280;43311;51.196;7.518;2023-08-17T01:22:51;97267.19;;;17.01
57468;BMP280;43311;51.196;7.518;2023-08-17T01:25:17;97269.44;;;17.02
57468;BMP280;43311;51.196;7.518;2023-08-17T01:27:46;97262.53;;;17.05
57468;BMP280;43311;51.196;7.518;2023-08-17T01:30:14;97246.28;;;16.94
57468;BMP280;43311;51.196;7.518;2023-08-17T01:38:12;97254.63;;;16.92
57468;BMP280;43311;51.196;7.518;2023-08-17T01:40:41;97248.22;;;16.81
57468;BMP280;43311;51.196;7.518;2023-08-17T01:43:09;97245.91;;;16.83
57468;BMP280;43311;51.196;7.518;2023-08-17T01:45:35;97245.75;;;16.86
57468;BMP280;43311;51.196;7.518;2023-08-17T01:48:00;97245.56;;;16.81
57468;BMP280;43311;51.196;7.518;2023-08-17T01:50:26;97237.31;;;16.79
57468;BMP280;43311;51.196;7.518;2023-08-17T01:52:51;97248.28;;;16.90
57468;BMP280;43311;51.196;7.518;2023-08-17T01:55:18;97238.47;;;16.78
57468;BMP280;43311;51.196;7.518;2023-08-17T01:57:44;97235.41;;;16.79
57468;BMP280;43311;51.196;7.518;2023-08-17T02:00:10;97226.44;;;16.77
57468;BMP280;43311;51.196;7.518;2023-08-17T02:02:44;97220.25;;;16.80
57468;BMP280;43311;51.196;7.518;2023-08-17T02:05:10;97218.66;;;16.82
57468;BMP280;43311;51.196;7.518;2023-08-17T02:07:36;97206.28;;;16.79
57468;BMP280;43311;51.196;7.518;2023-08-17T02:10:01;97195.50;;;16.74
57468;BMP280;43311;51.196;7.518;2023-08-17T02:12:27;97193.41;;;16.69
57468;BMP280;43311;51.196;7.518;2023-08-17T02:14:52;97197.53;;;16.70
57468;BMP280;43311;51.196;7.518;2023-08-17T02:17:18;97195.31;;;16.68
57468;BMP280;43311;51.196;7.518;2023-08-17T02:19:44;97189.28;;;16.68
57468;BMP280;43311;51.196;7.518;2023-08-17T02:22:10;97197.59;;;16.79
57468;BMP280;43311;51.196;7.518;2023-08-17T02:24:36;97179.28;;;16.72
57468;BMP280;43311;51.196;7.518;2023-08-17T02:27:02;97193.75;;;16.80
57468;BMP280;43311;51.196;7.518;2023-08-17T02:29:27;97184.66;;;16.81
57468;BMP280;43311;51.196;7.518;2023-08-17T02:31:53;97185.38;;;16.81
57468;BMP280;43311;51.196;7.518;2023-08-17T02:34:18;97165.00;;;16.69
57468;BMP280;43311;51.196;7.518;2023-08-17T02:36:44;97178.59;;;16.80
57468;BMP280;43311;51.196;7.518;2023-08-17T02:39:09;97168.75;;;16.81
57468;BMP280;43311;51.196;7.518;2023-08-17T02:41:34;97179.72;;;16.92
57468;BMP280;43311;51.196;7.518;2023-08-17T02:44:01;97173.94;;;16.84
57468;BMP280;43311;51.196;7.518;2023-08-17T02:46:26;97164.47;;;16.74
57468;BMP280;43311;51.196;7.518;2023-08-17T02:48:52;97170.25;;;16.82
57468;BMP280;43311;51.196;7.518;2023-08-17T02:51:18;97171.72;;;16.83
57468;BMP280;43311;51.196;7.518;2023-08-17T02:53:44;97166.03;;;16.72
57468;BMP280;43311;51.196;7.518;2023-08-17T02:56:09;97168.88;;;16.77
57468;BMP280;43311;51.196;7.518;2023-08-17T02:58:38;97162.22;;;16.73
57468;BMP280;43311;51.196;7.518;2023-08-17T03:01:09;97169.31;;;16.76
57468;BMP280;43311;51.196;7.518;2023-08-17T03:03:35;97160.13;;;16.68
57468;BMP280;43311;51.196;7.518;2023-08-17T03:06:02;97168.00;;;16.80
57468;BMP280;43311;51.196;7.518;2023-08-17T03:08:27;97151.22;;;16.74
57468;BMP280;43311;51.196;7.518;2023-08-17T03:10:53;97165.91;;;16.75
57468;BMP280;43311;51.196;7.518;2023-08-17T03:13:19;97175.78;;;16.75
57468;BMP280;43311;51.196;7.518;2023-08-17T03:15:44;97160.38;;;16.61
57468;BMP280;43311;51.196;7.518;2023-08-17T03:18:10;97160.91;;;16.68
57468;BMP280;43311;51.196;7.518;2023-08-17T03:20:37;97179.28;;;16.72
57468;BMP280;43311;51.196;7.518;2023-08-17T03:23:02;97172.53;;;16.71
57468;BMP280;43311;51.196;7.518;2023-08-17T03:25:32;97177.31;;;16.63
57468;BMP280;43311;51.196;7.518;2023-08-17T03:27:57;97191.44;;;16.60
57468;BMP280;43311;51.196;7.518;2023-08-17T03:30:22;97179.59;;;16.52
57468;BMP280;43311;51.196;7.518;2023-08-17T03:32:48;97180.81;;;16.60
57468;BMP280;43311;51.196;7.518;2023-08-17T03:35:13;97186.78;;;16.52
57468;BMP280;43311;51.196;7.518;2023-08-17T03:37:40;97197.28;;;16.55
57468;BMP280;43311;51.196;7.518;2023-08-17T03:40:06;97205.31;;;16.52
57468;BMP280;43311;51.196;7.518;2023-08-17T03:42:31;97185.25;;;16.42
57468;BMP280;43311;51.196;7.518;2023-08-17T03:44:57;97195.91;;;16.51
57468;BMP280;43311;51.196;7.518;2023-08-17T03:47:22;97197.31;;;16.43
57468;BMP280;43311;51.196;7.518;2023-08-17T03:49:48;97184.63;;;16.38
57468;BMP280;43311;51.196;7.518;2023-08-17T03:52:14;97186.09;;;16.39
57468;BMP280;43311;51.196;7.518;2023-08-17T03:54:39;97171.53;;;16.35
57468;BMP280;43311;51.196;7.518;2023-08-17T03:57:05;97175.50;;;16.39
57468;BMP280;43311;51.196;7.518;2023-08-17T03:59:30;97187.47;;;16.43
57468;BMP280;43311;51.196;7.518;2023-08-17T04:01:56;97185.97;;;16.42
57468;BMP280;43311;51.196;7.518;2023-08-17T04:04:22;97188.19;;;16.44
57468;BMP280;43311;51.196;7.518;2023-08-17T04:06:47;97174.78;;;16.39
57468;BMP280;43311;51.196;7.518;2023-08-17T04:09:12;97185.25;;;16.42
57468;BMP280;43311;51.196;7.518;2023-08-17T04:11:38;97175.28;;;16.46
57468;BMP280;43311;51.196;7.518;2023-08-17T04:14:04;97165.19;;;16.32
57468;BMP280;43311;51.196;7.518;2023-08-17T04:16:32;97187.16;;;16.42
57468;BMP280;43311;51.196;7.518;2023-08-17T04:18:58;97189.28;;;16.34
57468;BMP280;43311;51.196;7.518;2023-08-17T04:21:24;97192.88;;;16.40
57468;BMP280;43311;51.196;7.518;2023-08-17T04:23:50;97192.16;;;16.40
57468;BMP280;43311;51.196;7.518;2023-08-17T04:26:15;97183.78;;;16.41
57468;BMP280;43311;51.196;7.518;2023-08-17T04:28:40;97189.06;;;16.41
57468;BMP280;43311;51.196;7.518;2023-08-17T04:31:06;97193.63;;;16.41
57468;BMP280;43311;51.196;7.518;2023-08-17T04:33:35;97193.50;;;16.44
57468;BMP280;43311;51.196;7.518;2023-08-17T04:36:00;97198.25;;;16.49
57468;BMP280;43311;51.196;7.518;2023-08-17T04:38:33;97191.72;;;16.41
57468;BMP280;43311;51.196;7.518;2023-08-17T04:41:02;97199.34;;;16.39
57468;BMP280;43311;51.196;7.518;2023-08-17T04:43:28;97193.00;;;16.37
57468;BMP280;43311;51.196;7.518;2023-08-17T04:45:54;97199.88;;;16.34
57468;BMP280;43311;51.196;7.518;2023-08-17T04:48:20;97219.88;;;16.35
57468;BMP280;43311;51.196;7.518;2023-08-17T04:50:48;97198.94;;;16.28
57468;BMP280;43311;51.196;7.518;2023-08-17T04:53:14;97205.72;;;16.29
57468;BMP280;43311;51.196;7.518;2023-08-17T04:55:39;97215.03;;;16.34
57468;BMP280;43311;51.196;7.518;2023-08-17T04:58:04;97216.69;;;16.40
57468;BMP280;43311;51.196;7.518;2023-08-17T05:00:30;97230.31;;;16.51
57468;BMP280;43311;51.196;7.518;2023-08-17T05:02:57;97200.00;;;16.31
57468;BMP280;43311;51.196;7.518;2023-08-17T05:05:24;97211.34;;;16.31
57468;BMP280;43311;51.196;7.518;2023-08-17T05:07:52;97218.19;;;16.41
57468;BMP280;43311;51.196;7.518;2023-08-17T05:10:18;97219.34;;;16.40
57468;BMP280;43311;51.196;7.518;2023-08-17T05:12:43;97236.16;;;16.46
57468;BMP280;43311;51.196;7.518;2023-08-17T05:15:09;97213.44;;;16.36
57468;BMP280;43311;51.196;7.518;2023-08-17T05:17:34;97230.31;;;16.51
57468;BMP280;43311;51.196;7.518;2023-08-17T05:20:01;97229.72;;;16.47
57468;BMP280;43311;51.196;7.518;2023-08-17T05:22:28;97224.97;;;16.42
57468;BMP280;43311;51.196;7.518;2023-08-17T05:24:54;97231.31;;;16.44
57468;BMP280;43311;51.196;7.518;2023-08-17T05:27:44;97232.69;;;16.49
57468;BMP280;43311;51.196;7.518;2023-08-17T05:30:44;97232.34;;;16.47
57468;BMP280;43311;51.196;7.518;2023-08-17T05:37:04;97230.53;;;16.44
57468;BMP280;43311;51.196;7.518;2023-08-17T05:39:29;97237.09;;;16.52
57468;BMP280;43311;51.196;7.518;2023-08-17T05:41:54;97235.81;;;16.56
57468;BMP280;43311;51.196;7.518;2023-08-17T05:44:20;97225.81;;;16.39
57468;BMP280;43311;51.196;7.518;2023-08-17T05:46:45;97241.91;;;16.44
57468;BMP280;43311;51.196;7.518;2023-08-17T05:57:16;97235.66;;;16.39
57468;BMP280;43311;51.196;7.518;2023-08-17T05:59:42;97231.75;;;16.31
57468;BMP280;43311;51.196;7.518;2023-08-17T06:02:07;97228.69;;;16.32
57468;BMP280;43311;51.196;7.518;2023-08-17T06:04:32;97243.50;;;16.42
57468;BMP280;43311;51.196;7.518;2023-08-17T06:06:58;97234.59;;;16.36
57468;BMP280;43311;51.196;7.518;2023-08-17T06:09:23;97233.75;;;16.39
57468;BMP280;43311;51.196;7.518;2023-08-17T06:11:49;97252.66;;;16.50
57468;BMP280;43311;51.196;7.518;2023-08-17T06:14:14;97237.00;;;16.55
57468;BMP280;43311;51.196;7.518;2023-08-17T06:16:40;97212.34;;;16.46
57468;BMP280;43311;51.196;7.518;2023-08-17T06:19:05;97252.53;;;16.66
57468;BMP280;43311;51.196;7.518;2023-08-17T06:21:31;97241.53;;;16.55
57468;BMP280;43311;51.196;7.518;2023-08-17T06:23:56;97243.66;;;16.60
57468;BMP280;43311;51.196;7.518;2023-08-17T06:26:21;97219.34;;;16.40
57468;BMP280;43311;51.196;7.518;2023-08-17T06:28:47;97222.00;;;16.40
57468;BMP280;43311;51.196;7.518;2023-08-17T06:31:15;97243.66;;;16.60
57468;BMP280;43311;51.196;7.518;2023-08-17T06:33:40;97241.41;;;16.58
57468;BMP280;43311;51.196;7.518;2023-08-17T06:36:05;97241.94;;;16.66
57468;BMP280;43311;51.196;7.518;2023-08-17T06:38:31;97222.03;;;16.61
57468;BMP280;43311;51.196;7.518;2023-08-17T06:40:56;97231.97;;;16.70
57468;BMP280;43311;51.196;7.518;2023-08-17T06:43:21;97234.09;;;16.84
57468;BMP280;43311;51.196;7.518;2023-08-17T06:45:47;97233.56;;;16.89
57468;BMP280;43311;51.196;7.518;2023-08-17T06:48:12;97226.06;;;16.66
57468;BMP280;43311;51.196;7.518;2023-08-17T06:50:38;97206.06;;;16.52
57468;BMP280;43311;51.196;7.518;2023-08-17T06:53:04;97234.91;;;16.72
57468;BMP280;43311;51.196;7.518;2023-08-17T06:55:30;97243.25;;;16.83
57468;BMP280;43311;51.196;7.518;2023-08-17T06:57:55;97241.13;;;16.78
57468;BMP280;43311;51.196;7.518;2023-08-17T07:00:21;97227.03;;;16.81
57468;BMP280;43311;51.196;7.518;2023-08-17T07:02:47;97242.06;;;16.84
57468;BMP280;43311;51.196;7.518;2023-08-17T07:05:16;97246.56;;;16.96
57468;BMP280;43311;51.196;7.518;2023-08-17T07:07:42;97244.78;;;16.93
57468;BMP280;43311;51.196;7.518;2023-08-17T07:10:09;97250.09;;;16.93
57468;BMP280;43311;51.196;7.518;2023-08-17T07:12:36;97244.78;;;16.93
57468;BMP280;43311;51.196;7.518;2023-08-17T07:15:02;97243.06;;;16.99
57468;BMP280;43311;51.196;7.518;2023-08-17T07:17:41;97238.63;;;16.96
57468;BMP280;43311;51.196;7.518;2023-08-17T07:20:07;97235.03;;;16.90
57468;BMP280;43311;51.196;7.518;2023-08-17T07:22:33;97247.59;;;16.98
57468;BMP280;43311;51.196;7.518;2023-08-17T07:24:58;97217.97;;;16.91
57468;BMP280;43311;51.196;7.518;2023-08-17T07:27:24;97229.69;;;17.02
57468;BMP280;43311;51.196;7.518;2023-08-17T07:29:49;97243.47;;;17.18
57468;BMP280;43311;51.196;7.518;2023-08-17T07:32:14;97243.19;;;17.16
57468;BMP280;43311;51.196;7.518;2023-08-17T07:34:40;97250.22;;;17.11
57468;BMP280;43311;51.196;7.518;2023-08-17T07:37:05;97246.69;;;17.13
57468;BMP280;43311;51.196;7.518;2023-08-17T07:39:31;97257.47;;;17.19
57468;BMP280;43311;51.196;7.518;2023-08-17T07:41:57;97265.56;;;17.15
57468;BMP280;43311;51.196;7.518;2023-08-17T07:44:22;97265.47;;;17.07
57468;BMP280;43311;51.196;7.518;2023-08-17T07:46:47;97261.41;;;17.14
57468;BMP280;43311;51.196;7.518;2023-08-17T07:49:13;97259.69;;;17.20
57468;BMP280;43311;51.196;7.518;2023-08-17T07:51:38;97259.38;;;17.18
57468;BMP280;43311;51.196;7.518;2023-08-17T07:54:04;97254.28;;;17.24
57468;BMP280;43311;51.196;7.518;2023-08-17T07:56:29;97267.47;;;17.36
57468;BMP280;43311;51.196;7.518;2023-08-17T07:58:55;97270.69;;;17.31
57468;BMP280;43311;51.196;7.518;2023-08-17T08:01:20;97257.13;;;17.29
57468;BMP280;43311;51.196;7.518;2023-08-17T08:03:46;97272.13;;;17.54
57468;BMP280;43311;51.196;7.518;2023-08-17T08:06:11;97251.56;;;17.36
57468;BMP280;43311;51.196;7.518;2023-08-17T08:08:37;97267.81;;;17.47
57468;BMP280;43311;51.196;7.518;2023-08-17T08:11:03;97265.25;;;17.56
57468;BMP280;43311;51.196;7.518;2023-08-17T08:13:30;97268.72;;;17.44
57468;BMP280;43311;51.196;7.518;2023-08-17T08:15:55;97278.50;;;17.56
57468;BMP280;43311;51.196;7.518;2023-08-17T08:18:21;97280.59;;;17.61
57468;BMP280;43311;51.196;7.518;2023-08-17T08:20:46;97273.88;;;17.78
57468;BMP280;43311;51.196;7.518;2023-08-17T08:23:11;97278.63;;;17.83
57468;BMP280;43311;51.196;7.518;2023-08-17T08:25:37;97257.78;;;17.73
57468;BMP280;43311;51.196;7.518;2023-08-17T08:28:02;97264.66;;;17.91
57468;BMP280;43311;51.196;7.518;2023-08-17T08:30:28;97271.06;;;18.12
57468;BMP280;43311;51.196;7.518;2023-08-17T08:32:53;97258.81;;;18.14
57468;BMP280;43311;51.196;7.518;2023-08-17T08:35:20;97266.53;;;18.21
57468;BMP280;43311;51.196;7.518;2023-08-17T08:37:47;97261.06;;;18.25
57468;BMP280;43311;51.196;7.518;2023-08-17T08:40:14;97269.22;;;18.30
57468;BMP280;43311;51.196;7.518;2023-08-17T08:42:40;97261.69;;;18.29
57468;BMP280;43311;51.196;7.518;2023-08-17T08:45:06;97266.56;;;18.39
57468;BMP280;43311;51.196;7.518;2023-08-17T08:47:34;97258.72;;;18.27
57468;BMP280;43311;51.196;7.518;2023-08-17T08:50:02;97277.78;;;18.43
57468;BMP280;43311;51.196;7.518;2023-08-17T08:52:36;97278.41;;;18.65
57468;BMP280;43311;51.196;7.518;2023-08-17T08:55:11;97271.19;;;18.74
57468;BMP280;43311;51.196;7.518;2023-08-17T08:57:41;97259.94;;;18.70
57468;BMP280;43311;51.196;7.518;2023-08-17T09:00:07;97261.28;;;18.75
57468;BMP280;43311;51.196;7.518;2023-08-17T09:02:33;97271.63;;;18.91
57468;BMP280;43311;51.196;7.518;2023-08-17T09:04:59;97249.63;;;18.90
57468;BMP280;43311;51.196;7.518;2023-08-17T09:07:25;97256.28;;;18.95
57468;BMP280;43311;51.196;7.518;2023-08-17T09:09:52;97261.44;;;18.89
57468;BMP280;43311;51.196;7.518;2023-08-17T09:12:18;97261.16;;;18.96
57468;BMP280;43311;51.196;7.518;2023-08-17T09:14:43;97250.03;;;19.07
57468;BMP280;43311;51.196;7.518;2023-08-17T09:17:09;97248.75;;;19.20
57468;BMP280;43311;51.196;7.518;2023-08-17T09:19:34;97250.50;;;19.23
57468;BMP280;43311;51.196;7.518;2023-08-17T09:22:00;97259.38;;;19.20
57468;BMP280;43311;51.196;7.518;2023-08-17T09:24:36;97246.66;;;19.06
57468;BMP280;43311;51.196;7.518;2023-08-17T09:27:02;97245.03;;;19.18
57468;BMP280;43311;51.196;7.518;2023-08-17T09:29:28;97246.66;;;19.24
57468;BMP280;43311;51.196;7.518;2023-08-17T09:31:58;97248.72;;;19.29
57468;BMP280;43311;51.196;7.518;2023-08-17T09:34:30;97260.06;;;19.38
57468;BMP280;43311;51.196;7.518;2023-08-17T09:36:56;97250.88;;;19.48
57468;BMP280;43311;51.196;7.518;2023-08-17T09:39:22;97257.97;;;19.51
57468;BMP280;43311;51.196;7.518;2023-08-17T09:41:47;97254.34;;;19.31
57468;BMP280;43311;51.196;7.518;2023-08-17T09:44:12;97257.97;;;19.51
57468;BMP280;43311;51.196;7.518;2023-08-17T09:46:38;97257.53;;;19.44
57468;BMP280;43311;51.196;7.518;2023-08-17T09:49:05;97250.72;;;19.43
57468;BMP280;43311;51.196;7.518;2023-08-17T09:51:31;97234.22;;;19.39
57468;BMP280;43311;51.196;7.518;2023-08-17T09:53:57;97248.78;;;19.61
57468;BMP280;43311;51.196;7.518;2023-08-17T09:56:23;97253.38;;;19.52
57468;BMP280;43311;51.196;7.518;2023-08-17T09:58:50;97224.47;;;19.27
57468;BMP280;43311;51.196;7.518;2023-08-17T10:01:15;97252.81;;;19.48
57468;BMP280;43311;51.196;7.518;2023-08-17T10:03:43;97248.78;;;19.52
57468;BMP280;43311;51.196;7.518;2023-08-17T10:06:10;97240.28;;;19.39
57468;BMP280;43311;51.196;7.518;2023-08-17T10:08:43;97252.22;;;19.44
57468;BMP280;43311;51.196;7.518;2023-08-17T10:11:09;97244.56;;;19.37
57468;BMP280;43311;51.196;7.518;2023-08-17T10:13:39;97253.38;;;19.52
57468;BMP280;43311;51.196;7.518;2023-08-17T10:16:29;97259.72;;;19.54
57468;BMP280;43311;51.196;7.518;2023-08-17T10:22:31;97252.41;;;19.73
57468;BMP280;43311;51.196;7.518;2023-08-17T10:25:00;97232.06;;;19.61
57468;BMP280;43311;51.196;7.518;2023-08-17T10:27:26;97249.50;;;19.71
57468;BMP280;43311;51.196;7.518;2023-08-17T10:29:52;97235.59;;;19.67
57468;BMP280;43311;51.196;7.518;2023-08-17T10:32:18;97238.91;;;19.53
57468;BMP280;43311;51.196;7.518;2023-08-17T10:34:44;97232.28;;;19.81
57468;BMP280;43311;51.196;7.518;2023-08-17T10:37:10;97215.66;;;19.62
57468;BMP280;43311;51.196;7.518;2023-08-17T10:39:44;97229.91;;;19.83
57468;BMP280;43311;51.196;7.518;2023-08-17T10:42:10;97237.09;;;19.91
57468;BMP280;43311;51.196;7.518;2023-08-17T10:49:45;97253.25;;;19.88
57468;BMP280;43311;51.196;7.518;2023-08-17T10:52:12;97243.25;;;19.74
57468;BMP280;43311;51.196;7.518;2023-08-17T10:54:39;97246.16;;;19.85
57468;BMP280;43311;51.196;7.518;2023-08-17T10:57:24;97254.28;;;19.90
57468;BMP280;43311;51.196;7.518;2023-08-17T11:00:24;97243.78;;;19.95
57468;BMP280;43311;51.196;7.518;2023-08-17T11:03:07;97235.75;;;20.04
57468;BMP280;43311;51.196;7.518;2023-08-17T11:08:21;97250.34;;;20.09
57468;BMP280;43311;51.196;7.518;2023-08-17T11:10:56;97251.69;;;20.13
57468;BMP280;43311;51.196;7.518;2023-08-17T11:13:23;97248.44;;;20.09
57468;BMP280;43311;51.196;7.518;2023-08-17T11:15:49;97252.63;;;20.01
57468;BMP280;43311;51.196;7.518;2023-08-17T11:18:14;97252.22;;;19.94
57468;BMP280;43311;51.196;7.518;2023-08-17T11:20:41;97245.53;;;19.89
57468;BMP280;43311;51.196;7.518;2023-08-17T11:23:08;97247.63;;;19.94
57468;BMP280;43311;51.196;7.518;2023-08-17T11:25:35;97227.19;;;19.68
57468;BMP280;43311;51.196;7.518;2023-08-17T11:28:02;97246.16;;;19.93
57468;BMP280;43311;51.196;7.518;2023-08-17T11:30:28;97261.00;;;20.09
57468;BMP280;43311;51.196;7.518;2023-08-17T11:32:54;97247.06;;;20.14
57468;BMP280;43311;51.196;7.518;2023-08-17T11:35:21;97256.78;;;20.26
57468;BMP280;43311;51.196;7.518;2023-08-17T11:37:47;97242.03;;;20.16
57468;BMP280;43311;51.196;7.518;2023-08-17T11:40:14;97247.50;;;20.21
57468;BMP280;43311;51.196;7.518;2023-08-17T11:42:40;97241.66;;;20.32
57468;BMP280;43311;51.196;7.518;2023-08-17T11:45:06;97240.84;;;20.40
57468;BMP280;43311;51.196;7.518;2023-08-17T11:47:35;97237.13;;;20.47
57468;BMP280;43311;51.196;7.518;2023-08-17T11:50:05;97234.84;;;20.54
57468;BMP280;43311;51.196;7.518;2023-08-17T11:52:32;97239.16;;;20.52
57468;BMP280;43311;51.196;7.518;2023-08-17T11:55:06;97238.41;;;20.51
57468;BMP280;43311;51.196;7.518;2023-08-17T11:57:32;97242.88;;;20.45
57468;BMP280;43311;51.196;7.518;2023-08-17T11:59:58;97239.41;;;20.54
57468;BMP280;43311;51.196;7.518;2023-08-17T12:02:25;97217.94;;;20.57
57468;BMP280;43311;51.196;7.518;2023-08-17T12:04:51;97239.91;;;20.75
57468;BMP280;43311;51.196;7.518;2023-08-17T12:07:17;97236.44;;;20.84
57468;BMP280;43311;51.196;7.518;2023-08-17T12:09:46;97241.38;;;20.91
57468;BMP280;43311;51.196;7.518;2023-08-17T12:12:12;97249.69;;;21.07
57468;BMP280;43311;51.196;7.518;2023-08-17T12:14:41;97248.03;;;21.10
57468;BMP280;43311;51.196;7.518;2023-08-17T12:17:13;97216.00;;;20.81
57468;BMP280;43311;51.196;7.518;2023-08-17T12:19:39;97240.31;;;21.12
57468;BMP280;43311;51.196;7.518;2023-08-17T12:22:05;97233.69;;;21.07
57468;BMP280;43311;51.196;7.518;2023-08-17T12:24:30;97229.38;;;21.10
57468;BMP280;43311;51.196;7.518;2023-08-17T12:26:57;97243.06;;;21.31
57468;BMP280;43311;51.196;7.518;2023-08-17T12:29:23;97223.19;;;21.32
57468;BMP280;43311;51.196;7.518;2023-08-17T12:31:48;97213.81;;;21.51
57468;BMP280;43311;51.196;7.518;2023-08-17T12:34:14;97218.31;;;21.74
57468;BMP280;43311;51.196;7.518;2023-08-17T12:36:43;97227.34;;;21.97
57468;BMP280;43311;51.196;7.518;2023-08-17T12:39:08;97208.19;;;21.98
57468;BMP280;43311;51.196;7.518;2023-08-17T12:41:34;97225.94;;;22.35
57468;BMP280;43311;51.196;7.518;2023-08-17T12:43:59;97229.94;;;22.45
57468;BMP280;43311;51.196;7.518;2023-08-17T12:46:26;97203.34;;;22.16
57468;BMP280;43311;51.196;7.518;2023-08-17T12:48:51;97205.94;;;21.91
57468;BMP280;43311;51.196;7.518;2023-08-17T12:51:17;97220.19;;;22.22
57468;BMP280;43311;51.196;7.518;2023-08-17T12:53:42;97224.50;;;22.20
57468;BMP280;43311;51.196;7.518;2023-08-17T12:56:08;97219.25;;;22.05
57468;BMP280;43311;51.196;7.518;2023-08-17T12:58:34;97205.81;;;22.00
57468;BMP280;43311;51.196;7.518;2023-08-17T13:00:59;97206.03;;;22.16
57468;BMP280;43311;51.196;7.518;2023-08-17T13:03:24;97206.28;;;22.18
57468;BMP280;43311;51.196;7.518;2023-08-17T13:05:50;97207.91;;;22.30
57468;BMP280;43311;51.196;7.518;2023-08-17T13:08:15;97211.91;;;22.20
57468;BMP280;43311;51.196;7.518;2023-08-17T13:10:41;97211.94;;;22.26
57468;BMP280;43311;51.196;7.518;2023-08-17T13:13:07;97203.31;;;22.31
57468;BMP280;43311;51.196;7.518;2023-08-17T13:15:32;97213.59;;;22.38
57468;BMP280;43311;51.196;7.518;2023-08-17T13:17:58;97195.75;;;22.29
57468;BMP280;43311;51.196;7.518;2023-08-17T13:20:24;97201.34;;;22.51
57468;BMP280;43311;51.196;7.518;2023-08-17T13:22:49;97205.28;;;22.56
57468;BMP280;43311;51.196;7.518;2023-08-17T13:25:15;97209.25;;;22.40
57468;BMP280;43311;51.196;7.518;2023-08-17T13:27:41;97219.06;;;22.49
57468;BMP280;43311;51.196;7.518;2023-08-17T13:30:06;97202.09;;;22.52
57468;BMP280;43311;51.196;7.518;2023-08-17T13:32:32;97207.84;;;22.45
57468;BMP280;43311;51.196;7.518;2023-08-17T13:35:03;97228.44;;;22.59
57468;BMP280;43311;51.196;7.518;2023-08-17T13:37:29;97224.28;;;22.58
57468;BMP280;43311;51.196;7.518;2023-08-17T13:39:54;97230.22;;;22.67
57468;BMP280;43311;51.196;7.518;2023-08-17T13:42:20;97223.75;;;22.54
57468;BMP280;43311;51.196;7.518;2023-08-17T13:44:45;97227.22;;;22.40
57468;BMP280;43311;51.196;7.518;2023-08-17T13:47:11;97226.16;;;22.32
57468;BMP280;43311;51.196;7.518;2023-08-17T13:49:37;97219.25;;;22.45
57468;BMP280;43311;51.196;7.518;2023-08-17T13:52:02;97217.91;;;22.15
57468;BMP280;43311;51.196;7.518;2023-08-17T13:54:28;97214.09;;;22.22
57468;BMP280;43311;51.196;7.518;2023-08-17T13:56:53;97208.75;;;22.02
57468;BMP280;43311;51.196;7.518;2023-08-17T13:59:19;97215.16;;;22.10
57468;BMP280;43311;51.196;7.518;2023-08-17T14:01:44;97224.41;;;22.29
57468;BMP280;43311;51.196;7.518;2023-08-17T14:04:09;97208.66;;;22.31
57468;BMP280;43311;51.196;7.518;2023-08-17T14:06:40;97230.63;;;22.40
57468;BMP280;43311;51.196;7.518;2023-08-17T14:09:06;97214.78;;;22.37
57468;BMP280;43311;51.196;7.518;2023-08-17T14:11:32;97215.34;;;22.41
57468;BMP280;43311;51.196;7.518;2023-08-17T14:13:57;97206.09;;;22.22
57468;BMP280;43311;51.196;7.518;2023-08-17T14:16:23;97206.34;;;22.24
57468;BMP280;43311;51.196;7.518;2023-08-17T14:18:48;97208.81;;;22.07
57468;BMP280;43311;51.196;7.518;2023-08-17T14:21:14;97217.50;;;22.02
57468;BMP280;43311;51.196;7.518;2023-08-17T14:23:39;97206.31;;;22.04
57468;BMP280;43311;51.196;7.518;2023-08-17T14:26:05;97210.19;;;22.03
57468;BMP280;43311;51.196;7.518;2023-08-17T14:28:30;97210.25;;;21.89
57468;BMP280;43311;51.196;7.518;2023-08-17T14:30:56;97202.34;;;21.80
57468;BMP280;43311;51.196;7.518;2023-08-17T14:33:21;97211.03;;;21.75
57468;BMP280;43311;51.196;7.518;2023-08-17T14:35:47;97201.88;;;21.81